Time;durP1;ratioP1;P1;durP2;ratioP2;P2;SDS_P1;SDS_P2;PMS_P1;PMS_P2;Temp;Humidity;BMP_temperature;BMP_pressure;BME280_temperature;BME280_humidity;BME280_pressure;Samples;Min_cycle;Max_cycle;Signal;HPM_P1;HPM_P2
2022/02/21 00:00:07;;;;;;;2.35;1.60;;;10.50;99.90;;;;;;5107210;28;20284;-65
2022/02/21 00:02:33;;;;;;;1.67;1.50;;;10.50;99.90;;;;;;5112771;27;20666;-65
2022/02/21 00:05:00;;;;;;;1.58;1.20;;;10.50;99.90;;;;;;5113118;27;20219;-65
2022/02/21 00:07:27;;;;;;;6.63;5.32;;;10.60;99.90;;;;;;5106418;28;20231;-65
2022/02/21 00:09:54;;;;;;;3.80;3.25;;;10.60;99.90;;;;;;5108273;28;20227;-65
2022/02/21 00:12:21;;;;;;;5.20;3.80;;;10.60;99.90;;;;;;5113790;28;20617;-65
2022/02/21 00:14:49;;;;;;;2.95;2.50;;;10.50;99.90;;;;;;5100664;28;20226;-65
2022/02/21 00:17:16;;;;;;;3.63;2.53;;;10.50;99.90;;;;;;5104718;28;20229;-65
2022/02/21 00:19:42;;;;;;;1.10;1.00;;;10.50;99.90;;;;;;5107103;28;20222;-65
2022/02/21 00:22:09;;;;;;;1.58;1.20;;;10.50;99.90;;;;;;5112043;27;20599;-65
2022/02/21 00:24:36;;;;;;;1.13;1.02;;;10.50;99.90;;;;;;5100285;28;20723;-65
2022/02/21 00:27:03;;;;;;;1.20;1.00;;;10.60;99.90;;;;;;5103676;28;20234;-65
2022/02/21 00:29:30;;;;;;;1.13;1.02;;;10.60;99.90;;;;;;5107128;28;20304;-65
2022/02/21 00:31:58;;;;;;;1.80;1.25;;;10.70;99.90;;;;;;5103419;28;20695;-66
2022/02/21 00:34:25;;;;;;;2.97;1.17;;;10.70;99.90;;;;;;5099993;28;20219;-65
2022/02/21 00:36:52;;;;;;;1.65;1.10;;;10.70;99.90;;;;;;5103402;28;20691;-65
2022/02/21 00:39:19;;;;;;;3.40;1.40;;;10.70;99.90;;;;;;5108170;28;20215;-64
2022/02/21 00:41:47;;;;;;;3.88;1.00;;;10.70;99.90;;;;;;5104190;28;20226;-65
2022/02/21 00:44:14;;;;;;;1.95;1.55;;;10.80;99.90;;;;;;5099706;27;20298;-65
2022/02/21 00:46:42;;;;;;;2.15;1.27;;;10.80;99.90;;;;;;5101700;28;20323;-65
2022/02/21 00:49:13;;;;;;;1.80;1.30;;;10.70;99.90;;;;;;5111277;27;20680;-65
2022/02/21 00:51:40;;;;;;;2.70;1.67;;;10.70;99.90;;;;;;5113280;28;20245;-65
2022/02/21 00:54:07;;;;;;;2.08;1.15;;;10.80;99.90;;;;;;5099200;27;20668;-65
2022/02/21 00:56:35;;;;;;;1.60;1.50;;;10.80;99.90;;;;;;5100026;28;20224;-65
2022/02/21 00:59:02;;;;;;;1.88;1.25;;;10.80;99.90;;;;;;5099494;28;20227;-65
2022/02/21 01:01:29;;;;;;;1.60;0.90;;;10.90;99.90;;;;;;5112203;28;21008;-65
2022/02/21 01:03:56;;;;;;;4.15;3.47;;;10.90;99.90;;;;;;5111126;27;20237;-65
2022/02/21 01:06:24;;;;;;;1.20;1.00;;;11.00;99.90;;;;;;5112463;27;20284;-65
2022/02/21 01:08:51;;;;;;;2.05;1.70;;;11.00;99.90;;;;;;5099056;28;20298;-65
2022/02/21 01:11:19;;;;;;;1.50;1.00;;;11.10;99.90;;;;;;5111943;27;20540;-65
2022/02/21 01:13:47;;;;;;;1.85;1.10;;;11.10;99.90;;;;;;5106466;28;20223;-64
2022/02/21 01:16:14;;;;;;;1.25;0.90;;;11.10;99.90;;;;;;5105556;28;20347;-65
2022/02/21 01:18:41;;;;;;;1.20;1.10;;;11.10;99.90;;;;;;5099840;28;20272;-65
2022/02/21 01:21:09;;;;;;;2.38;1.25;;;11.10;99.90;;;;;;5099133;28;20278;-65
2022/02/21 01:23:40;;;;;;;8.23;4.28;;;11.10;99.90;;;;;;5104824;28;20280;-65
2022/02/21 01:26:07;;;;;;;1.00;0.90;;;11.10;99.90;;;;;;5105547;28;20280;-64
2022/02/21 01:28:34;;;;;;;2.08;1.27;;;11.10;99.90;;;;;;5101326;28;20294;-65
2022/02/21 01:31:02;;;;;;;3.88;2.88;;;11.20;99.90;;;;;;5098997;28;20338;-65
2022/02/21 01:33:29;;;;;;;1.02;0.88;;;11.20;99.90;;;;;;5102825;28;20216;-65
2022/02/21 01:35:56;;;;;;;1.50;1.27;;;11.30;99.90;;;;;;5108637;28;20223;-65
2022/02/21 01:38:23;;;;;;;1.02;0.93;;;11.30;99.90;;;;;;5112259;27;20726;-65
2022/02/21 01:40:52;;;;;;;2.35;1.80;;;11.40;99.90;;;;;;5109482;28;20224;-64
2022/02/21 01:43:19;;;;;;;1.80;1.05;;;11.40;99.90;;;;;;5102806;28;20219;-65
2022/02/21 01:45:46;;;;;;;2.88;1.70;;;11.50;99.90;;;;;;5098852;28;20691;-65
2022/02/21 01:48:13;;;;;;;5.07;3.90;;;11.50;99.90;;;;;;5101571;28;20280;-65
2022/02/21 01:50:40;;;;;;;2.45;0.90;;;11.60;99.90;;;;;;5105767;28;20251;-65
2022/02/21 01:53:07;;;;;;;1.52;1.30;;;11.60;99.90;;;;;;5103673;28;20223;-65
2022/02/21 01:55:34;;;;;;;1.90;1.30;;;11.70;99.90;;;;;;5098973;28;20229;-65
2022/02/21 01:58:07;;;;;;;1.45;1.02;;;11.80;99.90;;;;;;5100379;28;20232;-65
2022/02/21 02:00:37;;;;;;;0.80;0.80;;;11.80;99.90;;;;;;5105227;28;20618;-65
2022/02/21 02:03:04;;;;;;;1.48;1.00;;;11.80;99.90;;;;;;5105877;27;20300;-65
2022/02/21 02:05:31;;;;;;;1.23;1.10;;;11.80;99.90;;;;;;5111771;27;20305;-65
2022/02/21 02:07:59;;;;;;;2.35;1.40;;;11.80;99.90;;;;;;5100407;28;20690;-65
2022/02/21 02:10:26;;;;;;;1.02;0.70;;;11.90;99.90;;;;;;5110611;27;20223;-65
2022/02/21 02:12:53;;;;;;;2.45;0.85;;;11.80;99.90;;;;;;5112517;28;20223;-64
2022/02/21 02:15:21;;;;;;;2.30;1.00;;;11.80;99.90;;;;;;5098458;28;20699;-64
2022/02/21 02:17:48;;;;;;;1.00;0.90;;;11.90;99.90;;;;;;5099523;28;20243;-65
2022/02/21 02:20:18;;;;;;;1.70;0.90;;;12.00;99.90;;;;;;5105203;28;20228;-64
2022/02/21 02:22:46;;;;;;;1.38;1.13;;;11.90;99.90;;;;;;5105509;28;20223;-64
2022/02/21 02:25:13;;;;;;;1.35;1.13;;;12.00;99.90;;;;;;5099458;28;20377;-65
2022/02/21 02:27:41;;;;;;;2.35;1.10;;;12.10;99.90;;;;;;5100062;28;20230;-65
2022/02/21 02:30:09;;;;;;;3.72;1.20;;;12.00;99.90;;;;;;5107908;28;20254;-65
2022/02/21 02:32:35;;;;;;;1.95;1.10;;;12.10;99.90;;;;;;5108843;27;20645;-64
2022/02/21 02:35:03;;;;;;;2.38;1.80;;;12.10;99.90;;;;;;5104632;28;20219;-65
2022/02/21 02:37:30;;;;;;;3.90;3.15;;;12.10;99.90;;;;;;5115110;27;20223;-65
2022/02/21 02:39:59;;;;;;;3.42;2.40;;;12.10;99.90;;;;;;5116058;28;20667;-65
2022/02/21 02:42:26;;;;;;;6.70;2.40;;;12.10;99.90;;;;;;5101582;27;20302;-65
2022/02/21 02:44:53;;;;;;;5.00;3.65;;;12.00;99.90;;;;;;5105663;28;20581;-65
2022/02/21 02:47:20;;;;;;;5.88;4.28;;;11.90;99.90;;;;;;5108833;28;20298;-64
2022/02/21 02:49:47;;;;;;;3.97;3.60;;;11.80;99.90;;;;;;5105721;28;20379;-65
2022/02/21 02:52:14;;;;;;;2.17;1.92;;;11.80;99.90;;;;;;5101629;28;20688;-65
2022/02/21 02:54:44;;;;;;;2.50;1.60;;;11.70;99.90;;;;;;5104899;28;20220;-65
2022/02/21 02:57:12;;;;;;;5.90;4.60;;;11.60;99.90;;;;;;5108827;27;20666;-65
2022/02/21 02:59:39;;;;;;;3.80;2.33;;;11.60;99.90;;;;;;5106524;28;20219;-65
2022/02/21 03:02:05;;;;;;;2.67;1.90;;;11.40;99.90;;;;;;5101849;28;20233;-65
2022/02/21 03:04:33;;;;;;;1.70;1.00;;;11.30;99.90;;;;;;5114825;27;20223;-65
2022/02/21 03:07:00;;;;;;;3.13;2.22;;;11.30;99.90;;;;;;5111386;27;20227;-65
2022/02/21 03:09:27;;;;;;;1.30;1.10;;;11.20;99.90;;;;;;5105451;27;20219;-65
2022/02/21 03:11:54;;;;;;;6.60;2.83;;;11.20;99.90;;;;;;5115221;27;20223;-65
2022/02/21 03:14:23;;;;;;;2.13;1.40;;;11.10;99.90;;;;;;5103549;28;20227;-65
2022/02/21 03:16:50;;;;;;;1.52;1.20;;;11.10;99.90;;;;;;5108596;28;20227;-65
2022/02/21 03:19:19;;;;;;;3.85;3.15;;;11.10;99.90;;;;;;5106776;28;20231;-65
2022/02/21 03:21:46;;;;;;;2.42;1.60;;;11.00;99.90;;;;;;5101481;28;20219;-65
2022/02/21 03:24:13;;;;;;;1.88;1.75;;;11.10;99.90;;;;;;5102360;28;20219;-65
2022/02/21 03:26:40;;;;;;;3.10;2.05;;;11.10;99.90;;;;;;5107794;28;20230;-66
2022/02/21 03:29:09;;;;;;;1.30;1.20;;;11.00;99.90;;;;;;5108162;28;20215;-65
2022/02/21 03:31:37;;;;;;;6.32;4.85;;;11.10;99.90;;;;;;5101213;27;20227;-65
2022/02/21 03:34:04;;;;;;;1.60;1.27;;;11.00;99.90;;;;;;5114172;27;20223;-65
2022/02/21 03:36:31;;;;;;;1.17;0.93;;;11.00;99.90;;;;;;5101911;27;20219;-65
2022/02/21 03:38:58;;;;;;;3.33;2.95;;;10.90;99.90;;;;;;5113505;28;20695;-65
2022/02/21 03:41:25;;;;;;;1.67;1.20;;;10.90;99.90;;;;;;5114209;27;20306;-65
2022/02/21 03:43:52;;;;;;;3.03;1.88;;;10.90;99.90;;;;;;5113359;28;20215;-64
2022/02/21 03:46:19;;;;;;;2.40;1.30;;;10.90;99.90;;;;;;5102296;27;20227;-64
2022/02/21 03:48:47;;;;;;;8.02;3.45;;;10.80;99.90;;;;;;5101000;28;20231;-64
2022/02/21 03:51:14;;;;;;;3.10;2.80;;;10.80;99.90;;;;;;5105726;28;20239;-64
2022/02/21 03:53:40;;;;;;;1.15;0.80;;;10.70;99.90;;;;;;5107090;28;20219;-64
2022/02/21 03:56:07;;;;;;;1.58;1.40;;;10.60;99.90;;;;;;5103652;28;20215;-64
2022/02/21 03:58:34;;;;;;;3.75;3.15;;;10.60;99.90;;;;;;5100048;28;20589;-64
2022/02/21 04:01:01;;;;;;;1.80;1.35;;;10.60;99.90;;;;;;5104506;28;20231;-64
2022/02/21 04:03:29;;;;;;;1.77;0.95;;;10.60;99.90;;;;;;5102122;28;20299;-64
2022/02/21 04:05:57;;;;;;;1.55;1.02;;;10.70;99.90;;;;;;5114209;27;20227;-64
2022/02/21 04:08:24;;;;;;;2.35;2.15;;;10.70;99.90;;;;;;5111346;27;20672;-65
2022/02/21 04:10:51;;;;;;;5.43;4.35;;;10.70;99.90;;;;;;5109565;27;20227;-65
2022/02/21 04:13:17;;;;;;;2.03;1.40;;;10.70;99.90;;;;;;5111782;28;20223;-65
2022/02/21 04:15:45;;;;;;;2.47;1.60;;;10.70;99.90;;;;;;5102905;28;20211;-64
2022/02/21 04:18:12;;;;;;;3.38;2.75;;;10.70;99.90;;;;;;5100486;28;20576;-64
2022/02/21 04:20:39;;;;;;;2.85;1.70;;;10.70;99.90;;;;;;5103662;28;20241;-64
2022/02/21 04:23:07;;;;;;;3.25;2.25;;;10.70;99.90;;;;;;5107092;28;20226;-64
2022/02/21 04:25:34;;;;;;;2.78;2.05;;;10.70;99.90;;;;;;5107234;27;20227;-65
2022/02/21 04:28:01;;;;;;;0.90;0.80;;;10.60;99.90;;;;;;5099959;28;20222;-64
2022/02/21 04:30:29;;;;;;;4.28;2.60;;;10.60;99.90;;;;;;5102338;28;20228;-65
2022/02/21 04:32:58;;;;;;;3.80;2.20;;;10.60;99.90;;;;;;5107122;28;20224;-64
2022/02/21 04:35:26;;;;;;;1.40;1.20;;;10.60;99.90;;;;;;5104623;28;20240;-64
2022/02/21 04:37:54;;;;;;;2.20;1.45;;;10.50;99.90;;;;;;5113389;28;20234;-65
2022/02/21 04:40:25;;;;;;;1.00;0.90;;;10.50;99.90;;;;;;5101320;28;20238;-65
2022/02/21 04:42:58;;;;;;;3.75;2.85;;;10.50;99.90;;;;;;5106642;28;21002;-65
2022/02/21 04:45:38;;;;;;;5.32;3.78;;;10.60;99.90;;;;;;5106415;28;20639;-65
2022/02/21 04:48:07;;;;;;;2.75;1.40;;;10.50;99.90;;;;;;5102398;28;20229;-65
2022/02/21 04:50:35;;;;;;;2.10;1.35;;;10.50;99.90;;;;;;5099131;28;20218;-64
2022/02/21 04:53:02;;;;;;;3.15;2.05;;;10.40;99.90;;;;;;5102875;28;20302;-65
2022/02/21 04:55:30;;;;;;;1.77;1.05;;;10.40;99.90;;;;;;5106279;28;20257;-65
2022/02/21 04:57:57;;;;;;;1.73;1.55;;;10.50;99.90;;;;;;5103804;28;20243;-65
2022/02/21 05:00:24;;;;;;;1.48;1.38;;;10.40;99.90;;;;;;5099075;28;20255;-65
2022/02/21 05:02:51;;;;;;;1.48;1.05;;;10.40;99.90;;;;;;5111406;27;20272;-65
2022/02/21 05:05:18;;;;;;;1.60;1.20;;;10.40;99.90;;;;;;5111030;27;20211;-65
2022/02/21 05:07:46;;;;;;;4.95;2.88;;;10.40;99.90;;;;;;5113005;27;20222;-65
2022/02/21 05:10:13;;;;;;;2.47;2.22;;;10.30;99.90;;;;;;5105252;27;20681;-65
2022/02/21 05:12:41;;;;;;;1.42;1.20;;;10.30;99.90;;;;;;5113084;28;20219;-65
2022/02/21 05:15:10;;;;;;;2.47;1.70;;;10.30;99.90;;;;;;5099422;28;20230;-64
2022/02/21 05:17:37;;;;;;;1.25;1.05;;;10.30;99.90;;;;;;5100934;28;20238;-65
2022/02/21 05:20:05;;;;;;;2.65;1.80;;;10.20;99.90;;;;;;5106210;28;20533;-64
2022/02/21 05:22:32;;;;;;;3.00;2.13;;;10.20;99.90;;;;;;5104368;28;20227;-65
2022/02/21 05:24:58;;;;;;;2.10;1.55;;;10.20;99.90;;;;;;5108989;28;20215;-65
2022/02/21 05:27:25;;;;;;;2.50;2.30;;;10.20;99.90;;;;;;5099551;28;20232;-65
2022/02/21 05:29:53;;;;;;;2.80;2.17;;;10.20;99.90;;;;;;5106018;28;20669;-65
2022/02/21 05:32:20;;;;;;;3.72;1.42;;;10.30;99.90;;;;;;5105466;28;20222;-65
2022/02/21 05:34:47;;;;;;;4.47;3.40;;;10.20;99.90;;;;;;5099313;28;20229;-65
2022/02/21 05:37:14;;;;;;;1.23;1.10;;;10.20;99.90;;;;;;5111895;27;20227;-65
2022/02/21 05:39:41;;;;;;;4.15;2.17;;;10.20;99.90;;;;;;5112919;28;20234;-65
2022/02/21 05:42:09;;;;;;;3.40;1.75;;;10.10;99.90;;;;;;5098846;28;20247;-65
2022/02/21 05:44:36;;;;;;;2.45;1.70;;;10.10;99.90;;;;;;5104502;28;20215;-65
2022/02/21 05:47:05;;;;;;;3.20;1.85;;;10.10;99.90;;;;;;5105982;28;20242;-65
2022/02/21 05:49:32;;;;;;;8.32;5.45;;;10.00;99.90;;;;;;5100447;28;20311;-65
2022/02/21 05:51:59;;;;;;;5.30;3.05;;;10.00;99.90;;;;;;5098772;28;20557;-65
2022/02/21 05:54:26;;;;;;;5.13;1.50;;;10.00;99.90;;;;;;5103296;28;20224;-65
2022/02/21 05:56:54;;;;;;;7.82;3.67;;;9.90;99.90;;;;;;5105732;28;20223;-65
2022/02/21 05:59:21;;;;;;;4.05;2.65;;;9.90;99.90;;;;;;5101187;28;20299;-65
2022/02/21 06:01:48;;;;;;;3.15;1.80;;;9.90;99.90;;;;;;5098809;28;20223;-65
2022/02/21 06:04:16;;;;;;;4.10;2.90;;;9.90;99.90;;;;;;5116356;27;20227;-65
2022/02/21 06:06:43;;;;;;;2.47;2.00;;;9.90;99.90;;;;;;5115989;28;20222;-65
2022/02/21 06:09:09;;;;;;;4.70;2.10;;;9.90;99.90;;;;;;5109471;28;20673;-64
2022/02/21 06:11:36;;;;;;;5.25;1.40;;;9.90;99.90;;;;;;5115836;27;20237;-65
2022/02/21 06:14:03;;;;;;;1.65;1.40;;;9.90;99.90;;;;;;5107592;28;20238;-65
2022/02/21 06:16:30;;;;;;;6.55;2.50;;;9.90;99.90;;;;;;5109301;28;20219;-65
2022/02/21 06:18:57;;;;;;;5.50;3.58;;;9.80;99.90;;;;;;5105617;28;20227;-65
2022/02/21 06:21:25;;;;;;;4.90;3.72;;;9.70;99.90;;;;;;5102371;28;20719;-65
2022/02/21 06:23:52;;;;;;;7.75;3.30;;;9.70;99.90;;;;;;5106423;28;20215;-65
2022/02/21 06:26:19;;;;;;;2.58;1.63;;;9.60;99.90;;;;;;5109377;28;20219;-66
2022/02/21 06:28:46;;;;;;;5.93;2.78;;;9.60;99.90;;;;;;5106109;28;20211;-65
2022/02/21 06:31:13;;;;;;;4.07;2.10;;;9.50;99.70;;;;;;5102459;28;20254;-64
2022/02/21 06:33:40;;;;;;;6.55;2.58;;;9.40;99.90;;;;;;5104838;28;20230;-64
2022/02/21 06:36:07;;;;;;;4.90;1.85;;;9.40;99.90;;;;;;5113483;27;20221;-64
2022/02/21 06:38:37;;;;;;;8.10;3.22;;;9.40;99.80;;;;;;5115534;27;20219;-64
2022/02/21 06:41:04;;;;;;;12.23;5.75;;;9.30;99.60;;;;;;5110597;28;20330;-65
2022/02/21 06:43:31;;;;;;;5.57;3.00;;;9.20;99.20;;;;;;5107269;28;20231;-65
2022/02/21 06:45:59;;;;;;;8.25;2.25;;;9.20;99.40;;;;;;5109052;28;20219;-65
2022/02/21 06:48:26;;;;;;;5.18;1.90;;;9.10;99.20;;;;;;5107940;28;20230;-65
2022/02/21 06:50:54;;;;;;;10.00;5.00;;;9.10;99.40;;;;;;5102083;28;20227;-65
2022/02/21 06:53:21;;;;;;;6.40;2.80;;;9.10;99.60;;;;;;5101908;28;20220;-65
2022/02/21 06:55:49;;;;;;;6.70;3.35;;;9.10;99.80;;;;;;5108039;28;20307;-65
2022/02/21 06:58:16;;;;;;;7.03;2.67;;;9.10;99.90;;;;;;5108598;28;20560;-65
2022/02/21 07:00:43;;;;;;;8.88;3.22;;;9.10;99.90;;;;;;5102683;28;20222;-65
2022/02/21 07:03:10;;;;;;;5.72;2.50;;;9.10;99.90;;;;;;5112656;27;20276;-64
2022/02/21 07:05:39;;;;;;;5.25;2.50;;;9.00;99.90;;;;;;5114467;28;20233;-64
2022/02/21 07:08:06;;;;;;;8.60;3.92;;;9.00;99.90;;;;;;5113010;28;20517;-64
2022/02/21 07:10:33;;;;;;;6.32;2.53;;;9.00;99.90;;;;;;5114949;28;20613;-64
2022/02/21 07:13:02;;;;;;;4.85;3.20;;;8.90;99.90;;;;;;5115423;27;20225;-65
2022/02/21 07:15:29;;;;;;;5.93;2.90;;;8.90;99.90;;;;;;5115243;28;20223;-65
2022/02/21 07:17:57;;;;;;;6.72;4.80;;;8.80;99.90;;;;;;5115359;27;20223;-65
2022/02/21 07:20:25;;;;;;;7.78;2.45;;;8.90;99.90;;;;;;5115388;28;20280;-65
2022/02/21 07:22:53;;;;;;;10.63;5.45;;;8.90;99.90;;;;;;5115135;28;20690;-65
2022/02/21 07:25:19;;;;;;;6.03;3.33;;;8.90;99.90;;;;;;5115242;28;20219;-64
2022/02/21 07:27:49;;;;;;;4.32;2.60;;;9.00;99.90;;;;;;5114904;28;20412;-64
2022/02/21 07:30:19;;;;;;;7.85;3.45;;;8.80;99.90;;;;;;5115150;28;20330;-64
2022/02/21 07:32:48;;;;;;;5.75;2.72;;;8.80;99.90;;;;;;5114560;27;20590;-65
2022/02/21 07:35:15;;;;;;;6.63;3.70;;;8.70;99.90;;;;;;5115307;28;20300;-64
2022/02/21 07:37:42;;;;;;;10.27;3.72;;;8.60;99.90;;;;;;5114615;27;20219;-64
2022/02/21 07:40:12;;;;;;;7.43;2.80;;;8.60;99.90;;;;;;5114963;28;20241;-65
2022/02/21 07:42:42;;;;;;;6.57;3.40;;;8.50;99.90;;;;;;5114786;27;20238;-64
2022/02/21 07:45:09;;;;;;;5.45;4.20;;;8.50;99.90;;;;;;5115022;27;20556;-65
2022/02/21 07:47:44;;;;;;;6.72;4.35;;;8.50;99.90;;;;;;5114245;28;20248;-65
2022/02/21 07:50:11;;;;;;;14.55;5.18;;;8.50;99.90;;;;;;5115078;28;20566;-65
2022/02/21 07:52:38;;;;;;;13.65;5.03;;;8.50;99.90;;;;;;5114343;27;20227;-65
2022/02/21 07:55:06;;;;;;;7.60;4.00;;;8.50;99.90;;;;;;5114872;28;20551;-63
2022/02/21 07:57:33;;;;;;;7.90;5.00;;;8.50;99.90;;;;;;5114474;28;20233;-64
2022/02/21 08:00:00;;;;;;;7.43;3.85;;;8.50;99.90;;;;;;5114313;28;20219;-64
2022/02/21 08:02:27;;;;;;;10.68;4.60;;;8.50;99.90;;;;;;5114538;28;20219;-64
2022/02/21 08:04:55;;;;;;;12.20;4.03;;;8.60;99.90;;;;;;5114138;27;20217;-64
2022/02/21 08:07:22;;;;;;;7.88;3.42;;;8.60;99.90;;;;;;5114350;28;20215;-65
2022/02/21 08:09:49;;;;;;;5.95;3.53;;;8.50;99.90;;;;;;5113827;28;20351;-64
2022/02/21 08:12:16;;;;;;;8.75;4.00;;;8.60;99.90;;;;;;5114391;27;20227;-64
2022/02/21 08:14:43;;;;;;;7.57;2.78;;;8.70;99.90;;;;;;5113936;27;20231;-64
2022/02/21 08:17:09;;;;;;;6.88;3.13;;;8.70;99.90;;;;;;5114225;28;20218;-64
2022/02/21 08:19:36;;;;;;;6.40;3.85;;;8.70;99.90;;;;;;5114032;27;20524;-65
2022/02/21 08:22:05;;;;;;;7.95;2.95;;;8.80;99.90;;;;;;5113983;28;20233;-65
2022/02/21 08:24:32;;;;;;;8.02;3.20;;;8.80;99.90;;;;;;5113790;28;20227;-65
2022/02/21 08:26:58;;;;;;;8.00;2.63;;;8.80;99.90;;;;;;5113442;27;20570;-65
2022/02/21 08:29:25;;;;;;;7.93;2.78;;;8.90;99.90;;;;;;5113983;28;20234;-65
2022/02/21 08:31:54;;;;;;;5.75;3.70;;;8.80;99.90;;;;;;5113405;28;20233;-65
2022/02/21 08:34:22;;;;;;;7.85;4.18;;;8.80;99.90;;;;;;5113948;28;20696;-65
2022/02/21 08:36:49;;;;;;;6.97;4.40;;;8.80;99.80;;;;;;5113406;27;20276;-65
2022/02/21 08:39:17;;;;;;;3.83;2.25;;;8.80;99.30;;;;;;5113860;28;20223;-65
2022/02/21 08:41:45;;;;;;;9.25;3.90;;;8.80;99.00;;;;;;5113200;28;20700;-65
2022/02/21 08:44:15;;;;;;;4.75;2.85;;;8.80;99.00;;;;;;5113619;28;20219;-65
2022/02/21 08:46:43;;;;;;;12.80;4.65;;;8.80;98.90;;;;;;5113286;28;20745;-65
2022/02/21 08:49:09;;;;;;;6.65;2.47;;;8.80;98.70;;;;;;5113568;27;20249;-65
2022/02/21 08:51:37;;;;;;;6.68;3.13;;;8.80;98.40;;;;;;5112949;28;20318;-65
2022/02/21 08:54:04;;;;;;;7.40;5.22;;;8.80;98.50;;;;;;5113599;27;20249;-65
2022/02/21 08:56:32;;;;;;;9.32;3.60;;;8.80;98.40;;;;;;5113551;28;20234;-65
2022/02/21 08:58:59;;;;;;;7.10;3.60;;;8.80;98.00;;;;;;5112873;28;20223;-65
2022/02/21 09:01:25;;;;;;;9.30;3.60;;;8.90;98.30;;;;;;5113509;28;20737;-65
2022/02/21 09:03:52;;;;;;;5.93;2.40;;;8.80;98.20;;;;;;5113025;28;20677;-65
2022/02/21 09:06:19;;;;;;;8.32;2.88;;;8.90;98.30;;;;;;5113370;28;20223;-65
2022/02/21 09:08:46;;;;;;;13.02;3.50;;;8.90;98.40;;;;;;5113110;28;20237;-65
2022/02/21 09:11:13;;;;;;;5.28;2.63;;;9.00;98.40;;;;;;5113313;28;20226;-65
2022/02/21 09:13:41;;;;;;;6.70;3.55;;;8.90;97.90;;;;;;5112857;28;20225;-65
2022/02/21 09:16:08;;;;;;;4.82;2.10;;;9.00;97.80;;;;;;5113550;28;20219;-65
2022/02/21 09:18:35;;;;;;;18.10;4.75;;;9.00;97.60;;;;;;5113188;28;20231;-64
2022/02/21 09:21:01;;;;;;;6.45;2.40;;;9.00;97.70;;;;;;5112614;28;20230;-64
2022/02/21 09:23:28;;;;;;;3.83;2.45;;;9.00;97.00;;;;;;5113021;28;20215;-64
2022/02/21 09:25:55;;;;;;;8.20;2.60;;;9.00;96.60;;;;;;5112490;28;20689;-64
2022/02/21 09:28:22;;;;;;;6.05;3.15;;;9.10;97.00;;;;;;5113192;28;20246;-64
2022/02/21 09:30:53;;;;;;;4.70;2.75;;;9.10;96.80;;;;;;5112602;28;20227;-64
2022/02/21 09:33:23;;;;;;;11.43;2.30;;;9.20;96.70;;;;;;5113040;28;20286;-64
2022/02/21 09:35:49;;;;;;;10.10;2.83;;;9.20;96.40;;;;;;5112675;28;20223;-65
2022/02/21 09:38:17;;;;;;;6.18;2.92;;;9.10;96.40;;;;;;5112244;27;20484;-64
2022/02/21 09:40:46;;;;;;;6.72;3.30;;;9.20;96.70;;;;;;5112541;28;20314;-65
2022/02/21 09:43:15;;;;;;;8.68;2.75;;;9.20;96.30;;;;;;5113126;28;20237;-65
2022/02/21 09:45:43;;;;;;;4.03;1.95;;;9.20;95.80;;;;;;5112790;28;20349;-65
2022/02/21 09:48:14;;;;;;;8.68;2.80;;;9.30;96.00;;;;;;5112753;28;20231;-64
2022/02/21 09:50:41;;;;;;;6.28;2.30;;;9.20;95.70;;;;;;5112492;28;20227;-65
2022/02/21 09:53:08;;;;;;;8.20;3.78;;;9.20;95.40;;;;;;5112799;28;20219;-64
2022/02/21 09:55:36;;;;;;;8.48;5.43;;;9.30;95.00;;;;;;5112779;28;20233;-64
2022/02/21 09:58:04;;;;;;;6.38;4.38;;;9.20;95.20;;;;;;5112354;28;20219;-65
2022/02/21 10:00:31;;;;;;;12.07;4.85;;;9.00;95.00;;;;;;5112808;28;20641;-66
2022/02/21 10:02:58;;;;;;;16.38;4.93;;;9.10;95.00;;;;;;5112459;28;20280;-66
2022/02/21 10:05:26;;;;;;;12.82;3.50;;;9.10;94.90;;;;;;5113125;28;20215;-65
2022/02/21 10:07:54;;;;;;;9.35;3.15;;;9.20;94.50;;;;;;5112277;28;20227;-65
2022/02/21 10:10:22;;;;;;;7.55;4.00;;;9.20;94.80;;;;;;5112615;28;20223;-65
2022/02/21 10:12:51;;;;;;;9.52;2.80;;;9.20;94.60;;;;;;5112462;28;20227;-65
2022/02/21 10:15:20;;;;;;;8.63;2.88;;;9.30;94.80;;;;;;5112695;28;20315;-66
2022/02/21 10:17:48;;;;;;;3.25;2.80;;;9.30;95.20;;;;;;5112143;28;20231;-66
2022/02/21 10:20:16;;;;;;;7.05;3.60;;;9.30;94.80;;;;;;5112490;28;20218;-66
2022/02/21 10:23:01;;;;;;;5.90;3.45;;;9.30;94.20;;;;;;5112080;28;20231;-66
2022/02/21 10:25:28;;;;;;;5.75;2.97;;;9.40;94.20;;;;;;5112499;28;20228;-65
2022/02/21 10:28:02;;;;;;;7.35;3.20;;;9.40;94.00;;;;;;5112098;28;20233;-65
2022/02/21 10:30:35;;;;;;;7.47;2.85;;;9.40;94.20;;;;;;5112101;28;20249;-64
2022/02/21 10:33:16;;;;;;;5.53;2.45;;;9.40;94.20;;;;;;5111776;28;20234;-65
2022/02/21 10:35:47;;;;;;;7.18;3.05;;;9.50;94.50;;;;;;5111837;28;20303;-65
2022/02/21 10:38:22;;;;;;;2.33;1.95;;;9.50;94.60;;;;;;5112169;28;20305;-65
2022/02/21 10:40:56;;;;;;;7.50;3.00;;;9.50;94.30;;;;;;5111699;28;20230;-65
2022/02/21 10:43:28;;;;;;;7.63;2.97;;;9.50;94.10;;;;;;5112336;28;20276;-65
2022/02/21 10:46:02;;;;;;;6.88;2.70;;;9.40;93.90;;;;;;5111916;28;20219;-65
2022/02/21 10:48:35;;;;;;;3.95;2.00;;;9.50;93.80;;;;;;5113093;28;20231;-65
2022/02/21 10:51:09;;;;;;;3.88;1.65;;;9.50;93.70;;;;;;5115216;27;20226;-65
2022/02/21 10:53:47;;;;;;;4.63;2.20;;;9.40;93.70;;;;;;5115748;28;20226;-65
2022/02/21 10:56:21;;;;;;;3.47;1.75;;;9.50;94.00;;;;;;5115614;28;20630;-66
2022/02/21 10:58:58;;;;;;;5.50;2.97;;;9.60;94.00;;;;;;5115543;28;20235;-66
2022/02/21 11:01:30;;;;;;;9.50;5.80;;;9.60;94.10;;;;;;5115884;28;20219;-66
2022/02/21 11:04:08;;;;;;;10.05;6.13;;;9.70;94.20;;;;;;5115145;28;20218;-66
2022/02/21 11:06:43;;;;;;;5.90;2.42;;;9.70;94.00;;;;;;5115178;27;20222;-65
2022/02/21 11:09:19;;;;;;;5.72;2.25;;;9.70;93.90;;;;;;5115246;28;20688;-64
2022/02/21 11:11:53;;;;;;;7.07;2.03;;;9.70;93.30;;;;;;5114878;28;20310;-65
2022/02/21 11:14:29;;;;;;;9.15;2.42;;;9.60;93.60;;;;;;5115245;28;20276;-65
2022/02/21 11:17:05;;;;;;;4.93;2.70;;;9.70;93.70;;;;;;5114922;28;20218;-65
2022/02/21 11:19:39;;;;;;;8.05;2.80;;;9.60;93.40;;;;;;5112383;28;20224;-65
2022/02/21 11:22:12;;;;;;;11.93;4.50;;;9.70;93.70;;;;;;5114054;27;20268;-65
2022/02/21 11:24:58;;;;;;;9.70;3.38;;;9.60;93.60;;;;;;5114606;27;20243;-65
2022/02/21 11:27:41;;;;;;;4.80;2.15;;;9.60;94.00;;;;;;5114474;27;20211;-65
2022/02/21 11:30:18;;;;;;;5.70;2.78;;;9.60;93.40;;;;;;5114420;27;20223;-65
2022/02/21 11:33:07;;;;;;;6.07;2.40;;;9.70;93.60;;;;;;5114054;27;20567;-64
2022/02/21 11:35:45;;;;;;;4.38;2.90;;;9.70;93.50;;;;;;5114102;27;20284;-64
2022/02/21 11:38:25;;;;;;;9.57;3.97;;;9.70;93.50;;;;;;5114461;27;20242;-64
2022/02/21 11:41:00;;;;;;;8.63;3.58;;;9.60;93.40;;;;;;5114096;27;20243;-65
2022/02/21 11:43:39;;;;;;;7.03;3.58;;;9.60;92.80;;;;;;5115013;27;20229;-65
2022/02/21 11:46:13;;;;;;;9.45;3.38;;;9.60;92.80;;;;;;5115035;27;20229;-66
2022/02/21 11:49:01;;;;;;;6.60;2.33;;;9.60;92.80;;;;;;5110615;27;20215;-66
2022/02/21 11:51:39;;;;;;;7.32;2.38;;;9.60;92.10;;;;;;5122840;27;20681;-65
2022/02/21 11:54:47;;;;;;;8.68;2.80;;;9.60;92.50;;;;;;5114289;27;20223;-66
2022/02/21 11:57:22;;;;;;;4.78;2.40;;;9.60;91.90;;;;;;5121357;27;20215;-66
2022/02/21 12:00:00;;;;;;;7.72;3.08;;;9.70;92.10;;;;;;5110152;27;20219;-65
2022/02/21 12:02:34;;;;;;;5.15;2.38;;;9.80;92.10;;;;;;5106948;27;20649;-66
2022/02/21 12:05:07;;;;;;;8.60;3.67;;;9.70;91.60;;;;;;5099967;28;20240;-66
2022/02/21 12:07:40;;;;;;;4.45;2.92;;;9.80;91.60;;;;;;5098718;28;20312;-64
2022/02/21 12:10:25;;;;;;;3.92;2.03;;;9.80;91.60;;;;;;5093124;28;20223;-64
2022/02/21 12:13:02;;;;;;;6.78;2.55;;;9.90;91.30;;;;;;5103278;27;20219;-64
2022/02/21 12:15:37;;;;;;;7.82;2.65;;;10.00;90.70;;;;;;5110512;27;20301;-64
2022/02/21 12:18:50;;;;;;;5.72;2.33;;;9.90;89.80;;;;;;5104360;27;20218;-65
2022/02/21 12:21:24;;;;;;;7.22;4.07;;;9.90;90.00;;;;;;5105600;27;20227;-64
2022/02/21 12:24:11;;;;;;;5.95;3.30;;;9.80;89.40;;;;;;5094784;27;20223;-65
2022/02/21 12:26:47;;;;;;;7.80;3.30;;;9.80;89.90;;;;;;5101926;27;20740;-65
2022/02/21 12:29:25;;;;;;;6.88;2.95;;;9.80;89.70;;;;;;5107353;27;20218;-65
2022/02/21 12:32:04;;;;;;;6.65;2.88;;;9.80;89.80;;;;;;5107241;27;20307;-65
2022/02/21 12:34:39;;;;;;;4.22;2.30;;;9.70;89.90;;;;;;5100812;27;20256;-65
2022/02/21 12:37:17;;;;;;;9.45;2.30;;;9.80;89.80;;;;;;5103974;27;20222;-65
2022/02/21 12:39:51;;;;;;;6.07;3.05;;;9.70;89.70;;;;;;5108539;27;20730;-65
2022/02/21 12:42:26;;;;;;;7.50;2.65;;;9.70;89.50;;;;;;5107072;27;20210;-65
2022/02/21 12:44:58;;;;;;;4.85;2.20;;;9.70;90.00;;;;;;5109657;27;20617;-65
2022/02/21 12:47:31;;;;;;;12.40;3.00;;;9.70;89.50;;;;;;5118964;27;20753;-65
2022/02/21 12:50:04;;;;;;;4.85;2.53;;;9.70;89.50;;;;;;5109304;27;20219;-66
2022/02/21 12:52:38;;;;;;;7.00;2.72;;;9.80;90.00;;;;;;5113000;27;20287;-65
2022/02/21 12:55:12;;;;;;;9.25;2.17;;;9.80;89.70;;;;;;5105489;27;20214;-65
2022/02/21 12:57:46;;;;;;;7.47;2.17;;;9.80;89.10;;;;;;5112775;27;20219;-67
2022/02/21 13:00:31;;;;;;;6.20;3.00;;;9.80;89.10;;;;;;5100615;27;20310;-65